Chelsea, MA (02150)

4:08 PM EDT on March 26, 2015 (GMT -0400)
Prattville | Change Station
CLOSE
Current Station
Personal Weather Station
Location: Chelsea, MA
Elevation: 112 ft
Nearby Weather Stations

Elev 112 ft 42.41 °N, 71.04 °W | Updated 3 seconds ago

Overcast
Overcast
52.2 °F
Feels Like 52.2 °F
N
13.0
Wind Variable Wind from South
Gusts 13.0 mph

Today
High -- | Low -- °F
--% Chance of Precip.
Yesterday
High -- | Low -- °F
Precip. -- in
6:37 AM 7:02 PM
Waxing Crescent, 45% visible
Pressure 29.71 in
Visibility 8.0 miles
Clouds Mostly Cloudy 900 ft
Overcast 2100 ft
Dew Point 48 °F
Humidity 86%
Rainfall 0.11 in
Snow Depth Not available.
UV 1 out of 12
Pollen 3.50 out of 12
Air Quality Not available.
Flu Activity Not available.
METAR KBOS 261954Z 22009KT 8SM BKN009 OVC021 11/09 A2971 RMK AO2 RAE43 SLP059 P0004 T01060094

More Conditions Fewer Conditions

Pressure 29.71 in
Visibility 8.0 miles
Clouds Mostly Cloudy 900 ft
Overcast 2100 ft
Dew Point 48 °F
Humidity 86%
Rainfall 0.11 in
Snow Depth Not available.
UV 1 out of 12
Pollen 3.50 out of 12
Air Quality Not available.
Flu Activity Not available.
METAR KBOS 261954Z 22009KT 8SM BKN009 OVC021 11/09 A2971 RMK AO2 RAE43 SLP059 P0004 T01060094

More Conditions Fewer Conditions

10-Day Weather Forecast

Almanac

Astronomy

Mar. 26, 2015 Rise Set
Actual Time
Civil Twilight
Nautical Twilight
Astronomical Twilight
Moon
Length of Visible Light
Length of Day
Tomorrow will be .
, % of the Moon is Illuminated

Today's Extremes

State Highs State Lows

Community

WunderPhotos

Upload Photos

1,808,611 photos uploaded!

WunderBlogs® & News

Nearby

Air Quality

  Air Quality AQ Index Pollutant
Not available.

Snow Depth

Station Depth Elevation

Earthquake Activity

City Distance Mag. Time & Date
Minimum magnitude displayed is 2.5.

Coastal Water Temperatures

Place Temperature

Stations

Nearby Weather Stations

Station Location Temp. Windchill Dew Point Humidity Wind Precip. Elev Updated Type